sensor_id;sensor_type;location;lat;lon;timestamp;P1;durP1;ratioP1;P2;durP2;ratioP2
50585;SDS011;36542;51.700;8.846;2023-04-06T00:00:53;11.97;;;8.53;;
50585;SDS011;36542;51.700;8.846;2023-04-06T00:03:19;10.30;;;7.57;;
50585;SDS011;36542;51.700;8.846;2023-04-06T00:05:46;9.30;;;7.90;;
50585;SDS011;36542;51.700;8.846;2023-04-06T00:08:12;10.03;;;7.60;;
50585;SDS011;36542;51.700;8.846;2023-04-06T00:10:37;10.20;;;7.33;;
50585;SDS011;36542;51.700;8.846;2023-04-06T00:13:03;9.17;;;7.47;;
50585;SDS011;36542;51.700;8.846;2023-04-06T00:15:30;10.07;;;7.50;;
50585;SDS011;36542;51.700;8.846;2023-04-06T00:17:55;10.97;;;7.23;;
50585;SDS011;36542;51.700;8.846;2023-04-06T00:20:21;11.93;;;7.30;;
50585;SDS011;36542;51.700;8.846;2023-04-06T00:22:46;11.10;;;7.37;;
50585;SDS011;36542;51.700;8.846;2023-04-06T00:25:12;10.63;;;7.33;;
50585;SDS011;36542;51.700;8.846;2023-04-06T00:27:38;8.40;;;6.50;;
50585;SDS011;36542;51.700;8.846;2023-04-06T00:30:04;12.67;;;7.37;;
50585;SDS011;36542;51.700;8.846;2023-04-06T00:32:30;8.63;;;6.57;;
50585;SDS011;36542;51.700;8.846;2023-04-06T00:34:56;9.70;;;7.20;;
50585;SDS011;36542;51.700;8.846;2023-04-06T00:37:23;12.40;;;7.97;;
50585;SDS011;36542;51.700;8.846;2023-04-06T00:39:48;10.53;;;7.10;;
50585;SDS011;36542;51.700;8.846;2023-04-06T00:42:16;10.27;;;7.13;;
50585;SDS011;36542;51.700;8.846;2023-04-06T00:44:43;11.43;;;7.80;;
50585;SDS011;36542;51.700;8.846;2023-04-06T00:47:08;13.03;;;7.53;;
50585;SDS011;36542;51.700;8.846;2023-04-06T00:49:34;10.57;;;7.73;;
50585;SDS011;36542;51.700;8.846;2023-04-06T00:52:00;9.37;;;7.30;;
50585;SDS011;36542;51.700;8.846;2023-04-06T00:54:26;9.00;;;7.47;;
50585;SDS011;36542;51.700;8.846;2023-04-06T00:56:52;8.67;;;7.40;;
50585;SDS011;36542;51.700;8.846;2023-04-06T00:59:17;12.00;;;7.37;;
50585;SDS011;36542;51.700;8.846;2023-04-06T01:01:43;10.97;;;7.93;;
50585;SDS011;36542;51.700;8.846;2023-04-06T01:04:09;10.80;;;7.73;;
50585;SDS011;36542;51.700;8.846;2023-04-06T01:06:35;11.27;;;7.27;;
50585;SDS011;36542;51.700;8.846;2023-04-06T01:09:00;12.67;;;8.47;;
50585;SDS011;36542;51.700;8.846;2023-04-06T01:11:26;11.17;;;8.37;;
50585;SDS011;36542;51.700;8.846;2023-04-06T01:13:52;9.70;;;8.03;;
50585;SDS011;36542;51.700;8.846;2023-04-06T01:16:18;11.43;;;8.10;;
50585;SDS011;36542;51.700;8.846;2023-04-06T01:18:43;11.47;;;8.40;;
50585;SDS011;36542;51.700;8.846;2023-04-06T01:21:09;11.27;;;8.57;;
50585;SDS011;36542;51.700;8.846;2023-04-06T01:23:40;10.67;;;7.97;;
50585;SDS011;36542;51.700;8.846;2023-04-06T01:26:12;10.90;;;8.37;;
50585;SDS011;36542;51.700;8.846;2023-04-06T01:28:38;11.07;;;8.10;;
50585;SDS011;36542;51.700;8.846;2023-04-06T01:31:05;15.07;;;8.83;;
50585;SDS011;36542;51.700;8.846;2023-04-06T01:33:34;10.43;;;7.73;;
50585;SDS011;36542;51.700;8.846;2023-04-06T01:36:00;10.83;;;7.60;;
50585;SDS011;36542;51.700;8.846;2023-04-06T01:38:26;14.07;;;8.97;;
50585;SDS011;36542;51.700;8.846;2023-04-06T01:40:52;9.20;;;7.50;;
50585;SDS011;36542;51.700;8.846;2023-04-06T01:43:18;12.07;;;8.13;;
50585;SDS011;36542;51.700;8.846;2023-04-06T01:45:43;12.03;;;7.50;;
50585;SDS011;36542;51.700;8.846;2023-04-06T01:48:09;11.43;;;8.13;;
50585;SDS011;36542;51.700;8.846;2023-04-06T01:50:35;11.03;;;8.20;;
50585;SDS011;36542;51.700;8.846;2023-04-06T01:53:00;10.10;;;8.10;;
50585;SDS011;36542;51.700;8.846;2023-04-06T01:55:26;11.23;;;9.00;;
50585;SDS011;36542;51.700;8.846;2023-04-06T01:57:51;10.77;;;8.03;;
50585;SDS011;36542;51.700;8.846;2023-04-06T02:00:17;10.73;;;8.47;;
50585;SDS011;36542;51.700;8.846;2023-04-06T02:02:42;11.47;;;8.30;;
50585;SDS011;36542;51.700;8.846;2023-04-06T02:05:08;9.53;;;7.37;;
50585;SDS011;36542;51.700;8.846;2023-04-06T02:07:33;9.60;;;8.07;;
50585;SDS011;36542;51.700;8.846;2023-04-06T02:09:59;15.30;;;9.17;;
50585;SDS011;36542;51.700;8.846;2023-04-06T02:12:25;11.00;;;7.80;;
50585;SDS011;36542;51.700;8.846;2023-04-06T02:14:50;12.73;;;8.07;;
50585;SDS011;36542;51.700;8.846;2023-04-06T02:17:16;9.80;;;7.43;;
50585;SDS011;36542;51.700;8.846;2023-04-06T02:19:42;12.13;;;7.80;;
50585;SDS011;36542;51.700;8.846;2023-04-06T02:22:07;10.30;;;7.47;;
50585;SDS011;36542;51.700;8.846;2023-04-06T02:24:32;10.03;;;7.23;;
50585;SDS011;36542;51.700;8.846;2023-04-06T02:26:58;12.63;;;8.53;;
50585;SDS011;36542;51.700;8.846;2023-04-06T02:29:24;11.07;;;8.33;;
50585;SDS011;36542;51.700;8.846;2023-04-06T02:31:50;10.47;;;7.97;;
50585;SDS011;36542;51.700;8.846;2023-04-06T02:34:15;12.17;;;8.50;;
50585;SDS011;36542;51.700;8.846;2023-04-06T02:36:44;10.10;;;8.10;;
50585;SDS011;36542;51.700;8.846;2023-04-06T02:39:10;11.83;;;7.63;;
50585;SDS011;36542;51.700;8.846;2023-04-06T02:41:37;10.83;;;8.17;;
50585;SDS011;36542;51.700;8.846;2023-04-06T02:44:03;11.47;;;7.57;;
50585;SDS011;36542;51.700;8.846;2023-04-06T02:46:28;12.70;;;7.97;;
50585;SDS011;36542;51.700;8.846;2023-04-06T02:48:54;10.43;;;7.60;;
50585;SDS011;36542;51.700;8.846;2023-04-06T02:51:20;10.70;;;7.53;;
50585;SDS011;36542;51.700;8.846;2023-04-06T02:53:45;10.07;;;7.97;;
50585;SDS011;36542;51.700;8.846;2023-04-06T02:56:11;11.27;;;8.33;;
50585;SDS011;36542;51.700;8.846;2023-04-06T02:58:36;10.77;;;7.50;;
50585;SDS011;36542;51.700;8.846;2023-04-06T03:01:02;11.53;;;7.70;;
50585;SDS011;36542;51.700;8.846;2023-04-06T03:03:28;12.10;;;8.93;;
50585;SDS011;36542;51.700;8.846;2023-04-06T03:05:53;12.27;;;7.70;;
50585;SDS011;36542;51.700;8.846;2023-04-06T03:08:21;11.73;;;8.07;;
50585;SDS011;36542;51.700;8.846;2023-04-06T03:10:46;11.27;;;7.93;;
50585;SDS011;36542;51.700;8.846;2023-04-06T03:13:12;11.77;;;8.23;;
50585;SDS011;36542;51.700;8.846;2023-04-06T03:15:37;12.37;;;8.17;;
50585;SDS011;36542;51.700;8.846;2023-04-06T03:18:03;14.70;;;8.70;;
50585;SDS011;36542;51.700;8.846;2023-04-06T03:20:28;13.53;;;8.23;;
50585;SDS011;36542;51.700;8.846;2023-04-06T03:22:54;13.57;;;8.33;;
50585;SDS011;36542;51.700;8.846;2023-04-06T03:25:20;10.73;;;7.87;;
50585;SDS011;36542;51.700;8.846;2023-04-06T03:27:45;10.83;;;8.23;;
50585;SDS011;36542;51.700;8.846;2023-04-06T03:30:11;12.20;;;7.70;;
50585;SDS011;36542;51.700;8.846;2023-04-06T03:32:36;10.63;;;7.97;;
50585;SDS011;36542;51.700;8.846;2023-04-06T03:35:02;12.73;;;7.90;;
50585;SDS011;36542;51.700;8.846;2023-04-06T03:37:28;10.03;;;8.27;;
50585;SDS011;36542;51.700;8.846;2023-04-06T03:39:53;13.73;;;8.47;;
50585;SDS011;36542;51.700;8.846;2023-04-06T03:42:19;14.53;;;8.20;;
50585;SDS011;36542;51.700;8.846;2023-04-06T03:44:44;11.57;;;8.10;;
50585;SDS011;36542;51.700;8.846;2023-04-06T03:47:10;10.83;;;7.80;;
50585;SDS011;36542;51.700;8.846;2023-04-06T03:49:35;13.00;;;8.87;;
50585;SDS011;36542;51.700;8.846;2023-04-06T03:52:01;12.43;;;7.93;;
50585;SDS011;36542;51.700;8.846;2023-04-06T03:54:26;12.40;;;8.43;;
50585;SDS011;36542;51.700;8.846;2023-04-06T03:56:52;11.80;;;8.33;;
50585;SDS011;36542;51.700;8.846;2023-04-06T03:59:17;13.80;;;9.57;;
50585;SDS011;36542;51.700;8.846;2023-04-06T04:01:42;12.00;;;7.80;;
50585;SDS011;36542;51.700;8.846;2023-04-06T04:04:08;11.40;;;8.40;;
50585;SDS011;36542;51.700;8.846;2023-04-06T04:06:35;13.07;;;8.70;;
50585;SDS011;36542;51.700;8.846;2023-04-06T04:09:01;11.07;;;8.70;;
50585;SDS011;36542;51.700;8.846;2023-04-06T04:11:28;10.43;;;8.23;;
50585;SDS011;36542;51.700;8.846;2023-04-06T04:13:53;11.17;;;9.07;;
50585;SDS011;36542;51.700;8.846;2023-04-06T04:16:19;12.83;;;8.43;;
50585;SDS011;36542;51.700;8.846;2023-04-06T04:18:44;11.10;;;8.13;;
50585;SDS011;36542;51.700;8.846;2023-04-06T04:21:12;11.67;;;8.30;;
50585;SDS011;36542;51.700;8.846;2023-04-06T04:23:37;15.10;;;8.77;;
50585;SDS011;36542;51.700;8.846;2023-04-06T04:26:03;12.33;;;8.93;;
50585;SDS011;36542;51.700;8.846;2023-04-06T04:28:28;14.60;;;8.17;;
50585;SDS011;36542;51.700;8.846;2023-04-06T04:30:54;11.03;;;8.10;;
50585;SDS011;36542;51.700;8.846;2023-04-06T04:33:19;11.87;;;8.77;;
50585;SDS011;36542;51.700;8.846;2023-04-06T04:35:45;13.60;;;9.97;;
50585;SDS011;36542;51.700;8.846;2023-04-06T04:38:10;12.50;;;8.53;;
50585;SDS011;36542;51.700;8.846;2023-04-06T04:40:36;15.23;;;9.63;;
50585;SDS011;36542;51.700;8.846;2023-04-06T04:43:01;12.40;;;8.97;;
50585;SDS011;36542;51.700;8.846;2023-04-06T04:45:27;10.87;;;8.57;;
50585;SDS011;36542;51.700;8.846;2023-04-06T04:47:52;12.60;;;8.77;;
50585;SDS011;36542;51.700;8.846;2023-04-06T04:50:18;13.10;;;9.10;;
50585;SDS011;36542;51.700;8.846;2023-04-06T04:52:43;14.60;;;9.43;;
50585;SDS011;36542;51.700;8.846;2023-04-06T04:55:09;11.53;;;8.40;;
50585;SDS011;36542;51.700;8.846;2023-04-06T04:57:34;13.33;;;8.27;;
50585;SDS011;36542;51.700;8.846;2023-04-06T05:00:00;13.63;;;8.93;;
50585;SDS011;36542;51.700;8.846;2023-04-06T05:02:26;10.57;;;8.33;;
50585;SDS011;36542;51.700;8.846;2023-04-06T05:04:52;14.13;;;9.13;;
50585;SDS011;36542;51.700;8.846;2023-04-06T05:07:17;12.07;;;8.10;;
50585;SDS011;36542;51.700;8.846;2023-04-06T05:09:43;11.67;;;8.97;;
50585;SDS011;36542;51.700;8.846;2023-04-06T05:12:09;11.33;;;8.83;;
50585;SDS011;36542;51.700;8.846;2023-04-06T05:14:35;15.57;;;8.57;;
50585;SDS011;36542;51.700;8.846;2023-04-06T05:17:00;11.97;;;8.73;;
50585;SDS011;36542;51.700;8.846;2023-04-06T05:19:26;13.67;;;8.00;;
50585;SDS011;36542;51.700;8.846;2023-04-06T05:21:51;12.60;;;8.13;;
50585;SDS011;36542;51.700;8.846;2023-04-06T05:24:17;12.13;;;8.33;;
50585;SDS011;36542;51.700;8.846;2023-04-06T05:26:43;12.57;;;8.43;;
50585;SDS011;36542;51.700;8.846;2023-04-06T05:29:10;12.70;;;8.93;;
50585;SDS011;36542;51.700;8.846;2023-04-06T05:31:35;13.07;;;8.80;;
50585;SDS011;36542;51.700;8.846;2023-04-06T05:34:01;11.07;;;8.37;;
50585;SDS011;36542;51.700;8.846;2023-04-06T05:36:27;13.50;;;8.83;;
50585;SDS011;36542;51.700;8.846;2023-04-06T05:38:52;11.30;;;8.27;;
50585;SDS011;36542;51.700;8.846;2023-04-06T05:41:18;12.07;;;8.40;;
50585;SDS011;36542;51.700;8.846;2023-04-06T05:43:43;10.40;;;7.50;;
50585;SDS011;36542;51.700;8.846;2023-04-06T05:46:09;9.87;;;7.90;;
50585;SDS011;36542;51.700;8.846;2023-04-06T05:48:35;13.00;;;7.83;;
50585;SDS011;36542;51.700;8.846;2023-04-06T05:51:01;12.07;;;8.17;;
50585;SDS011;36542;51.700;8.846;2023-04-06T05:53:30;13.17;;;8.13;;
50585;SDS011;36542;51.700;8.846;2023-04-06T05:55:56;10.87;;;8.43;;
50585;SDS011;36542;51.700;8.846;2023-04-06T05:58:22;10.20;;;7.47;;
50585;SDS011;36542;51.700;8.846;2023-04-06T06:00:47;9.50;;;7.40;;
50585;SDS011;36542;51.700;8.846;2023-04-06T06:03:13;8.90;;;7.10;;
50585;SDS011;36542;51.700;8.846;2023-04-06T06:05:40;10.87;;;8.20;;
50585;SDS011;36542;51.700;8.846;2023-04-06T06:08:05;10.23;;;7.83;;
50585;SDS011;36542;51.700;8.846;2023-04-06T06:10:31;12.60;;;9.23;;
50585;SDS011;36542;51.700;8.846;2023-04-06T06:12:56;9.57;;;7.90;;
50585;SDS011;36542;51.700;8.846;2023-04-06T06:15:22;11.17;;;8.20;;
50585;SDS011;36542;51.700;8.846;2023-04-06T06:17:47;11.73;;;8.50;;
50585;SDS011;36542;51.700;8.846;2023-04-06T06:20:13;11.97;;;7.53;;
50585;SDS011;36542;51.700;8.846;2023-04-06T06:22:38;11.53;;;8.07;;
50585;SDS011;36542;51.700;8.846;2023-04-06T06:25:05;8.87;;;7.87;;
50585;SDS011;36542;51.700;8.846;2023-04-06T06:27:30;8.30;;;7.27;;
50585;SDS011;36542;51.700;8.846;2023-04-06T06:29:56;8.40;;;7.30;;
50585;SDS011;36542;51.700;8.846;2023-04-06T06:32:21;8.57;;;6.57;;
50585;SDS011;36542;51.700;8.846;2023-04-06T06:34:47;8.70;;;7.27;;
50585;SDS011;36542;51.700;8.846;2023-04-06T06:37:12;10.80;;;6.70;;
50585;SDS011;36542;51.700;8.846;2023-04-06T06:39:38;8.97;;;7.30;;
50585;SDS011;36542;51.700;8.846;2023-04-06T06:42:04;7.30;;;6.40;;
50585;SDS011;36542;51.700;8.846;2023-04-06T06:44:30;8.87;;;6.77;;
50585;SDS011;36542;51.700;8.846;2023-04-06T06:46:55;13.03;;;7.47;;
50585;SDS011;36542;51.700;8.846;2023-04-06T06:49:21;8.13;;;6.60;;
50585;SDS011;36542;51.700;8.846;2023-04-06T06:51:46;8.97;;;6.47;;
50585;SDS011;36542;51.700;8.846;2023-04-06T06:54:12;9.17;;;6.97;;
50585;SDS011;36542;51.700;8.846;2023-04-06T06:56:38;8.57;;;6.53;;
50585;SDS011;36542;51.700;8.846;2023-04-06T06:59:04;8.90;;;6.80;;
50585;SDS011;36542;51.700;8.846;2023-04-06T07:01:32;11.37;;;7.13;;
50585;SDS011;36542;51.700;8.846;2023-04-06T07:03:58;9.10;;;6.67;;
50585;SDS011;36542;51.700;8.846;2023-04-06T07:06:24;7.77;;;6.60;;
50585;SDS011;36542;51.700;8.846;2023-04-06T07:08:50;9.03;;;6.90;;
50585;SDS011;36542;51.700;8.846;2023-04-06T07:11:15;7.93;;;6.63;;
50585;SDS011;36542;51.700;8.846;2023-04-06T07:13:41;9.37;;;7.33;;
50585;SDS011;36542;51.700;8.846;2023-04-06T07:16:07;7.40;;;6.60;;
50585;SDS011;36542;51.700;8.846;2023-04-06T07:18:33;7.30;;;6.20;;
50585;SDS011;36542;51.700;8.846;2023-04-06T07:20:58;11.40;;;6.30;;
50585;SDS011;36542;51.700;8.846;2023-04-06T07:23:24;8.33;;;6.50;;
50585;SDS011;36542;51.700;8.846;2023-04-06T07:25:49;9.33;;;6.37;;
50585;SDS011;36542;51.700;8.846;2023-04-06T07:28:17;8.43;;;6.63;;
50585;SDS011;36542;51.700;8.846;2023-04-06T07:30:42;9.73;;;6.50;;
50585;SDS011;36542;51.700;8.846;2023-04-06T07:33:08;7.93;;;6.30;;
50585;SDS011;36542;51.700;8.846;2023-04-06T07:35:33;8.57;;;6.60;;
50585;SDS011;36542;51.700;8.846;2023-04-06T07:37:59;11.50;;;7.13;;
50585;SDS011;36542;51.700;8.846;2023-04-06T07:40:25;8.93;;;6.57;;
50585;SDS011;36542;51.700;8.846;2023-04-06T07:42:51;8.33;;;6.40;;
50585;SDS011;36542;51.700;8.846;2023-04-06T07:45:17;11.23;;;6.80;;
50585;SDS011;36542;51.700;8.846;2023-04-06T07:47:43;8.07;;;6.07;;
50585;SDS011;36542;51.700;8.846;2023-04-06T07:50:09;9.90;;;6.80;;
50585;SDS011;36542;51.700;8.846;2023-04-06T07:52:35;7.93;;;6.77;;
50585;SDS011;36542;51.700;8.846;2023-04-06T07:55:00;8.37;;;6.40;;
50585;SDS011;36542;51.700;8.846;2023-04-06T07:57:26;8.20;;;6.63;;
50585;SDS011;36542;51.700;8.846;2023-04-06T07:59:52;7.47;;;6.60;;
50585;SDS011;36542;51.700;8.846;2023-04-06T08:02:17;8.83;;;7.20;;
50585;SDS011;36542;51.700;8.846;2023-04-06T08:04:43;9.10;;;7.20;;
50585;SDS011;36542;51.700;8.846;2023-04-06T08:07:09;8.07;;;6.73;;
50585;SDS011;36542;51.700;8.846;2023-04-06T08:09:34;12.77;;;6.97;;
50585;SDS011;36542;51.700;8.846;2023-04-06T08:12:00;10.07;;;7.00;;
50585;SDS011;36542;51.700;8.846;2023-04-06T08:14:25;9.80;;;7.20;;
50585;SDS011;36542;51.700;8.846;2023-04-06T08:16:51;10.77;;;6.77;;
50585;SDS011;36542;51.700;8.846;2023-04-06T08:19:16;8.83;;;7.27;;
50585;SDS011;36542;51.700;8.846;2023-04-06T08:21:43;7.80;;;6.63;;
50585;SDS011;36542;51.700;8.846;2023-04-06T08:24:10;8.67;;;6.70;;
50585;SDS011;36542;51.700;8.846;2023-04-06T08:26:36;7.20;;;6.50;;
50585;SDS011;36542;51.700;8.846;2023-04-06T08:29:02;8.93;;;7.27;;
50585;SDS011;36542;51.700;8.846;2023-04-06T08:31:28;8.10;;;7.30;;
50585;SDS011;36542;51.700;8.846;2023-04-06T08:33:55;11.27;;;7.60;;
50585;SDS011;36542;51.700;8.846;2023-04-06T08:36:21;11.93;;;7.43;;
50585;SDS011;36542;51.700;8.846;2023-04-06T08:38:47;9.00;;;7.53;;
50585;SDS011;36542;51.700;8.846;2023-04-06T08:41:14;8.50;;;7.60;;
50585;SDS011;36542;51.700;8.846;2023-04-06T08:43:46;13.40;;;8.23;;
50585;SDS011;36542;51.700;8.846;2023-04-06T08:46:13;9.20;;;7.73;;
50585;SDS011;36542;51.700;8.846;2023-04-06T08:48:40;10.57;;;8.63;;
50585;SDS011;36542;51.700;8.846;2023-04-06T08:51:07;11.93;;;9.17;;
50585;SDS011;36542;51.700;8.846;2023-04-06T08:53:36;11.10;;;8.03;;
50585;SDS011;36542;51.700;8.846;2023-04-06T08:56:03;10.17;;;8.27;;
50585;SDS011;36542;51.700;8.846;2023-04-06T08:58:32;11.03;;;8.43;;
50585;SDS011;36542;51.700;8.846;2023-04-06T09:01:00;9.40;;;7.43;;
50585;SDS011;36542;51.700;8.846;2023-04-06T09:03:28;10.13;;;8.17;;
50585;SDS011;36542;51.700;8.846;2023-04-06T09:05:55;9.97;;;8.30;;
50585;SDS011;36542;51.700;8.846;2023-04-06T09:08:20;13.60;;;8.27;;
50585;SDS011;36542;51.700;8.846;2023-04-06T09:10:46;11.87;;;8.27;;
50585;SDS011;36542;51.700;8.846;2023-04-06T09:13:13;8.90;;;7.80;;
50585;SDS011;36542;51.700;8.846;2023-04-06T09:15:39;12.27;;;8.67;;
50585;SDS011;36542;51.700;8.846;2023-04-06T09:18:05;11.23;;;8.33;;
50585;SDS011;36542;51.700;8.846;2023-04-06T09:20:30;12.73;;;8.80;;
50585;SDS011;36542;51.700;8.846;2023-04-06T09:22:56;10.40;;;8.60;;
50585;SDS011;36542;51.700;8.846;2023-04-06T09:25:22;11.43;;;8.10;;
50585;SDS011;36542;51.700;8.846;2023-04-06T09:28:00;11.30;;;8.23;;
50585;SDS011;36542;51.700;8.846;2023-04-06T09:30:27;12.63;;;9.53;;
50585;SDS011;36542;51.700;8.846;2023-04-06T09:32:54;12.30;;;8.43;;
50585;SDS011;36542;51.700;8.846;2023-04-06T09:35:21;9.17;;;8.13;;
50585;SDS011;36542;51.700;8.846;2023-04-06T09:37:48;11.37;;;9.33;;
50585;SDS011;36542;51.700;8.846;2023-04-06T09:40:15;9.73;;;8.63;;
50585;SDS011;36542;51.700;8.846;2023-04-06T09:42:42;11.27;;;9.30;;
50585;SDS011;36542;51.700;8.846;2023-04-06T09:45:11;12.93;;;8.33;;
50585;SDS011;36542;51.700;8.846;2023-04-06T09:47:37;12.07;;;8.73;;
50585;SDS011;36542;51.700;8.846;2023-04-06T09:50:05;10.83;;;9.40;;
50585;SDS011;36542;51.700;8.846;2023-04-06T09:52:37;13.37;;;9.17;;
50585;SDS011;36542;51.700;8.846;2023-04-06T09:55:06;11.40;;;8.53;;
50585;SDS011;36542;51.700;8.846;2023-04-06T09:58:33;10.83;;;9.20;;
50585;SDS011;36542;51.700;8.846;2023-04-06T10:00:32;13.40;;;10.17;;
50585;SDS011;36542;51.700;8.846;2023-04-06T10:03:11;12.37;;;9.87;;
50585;SDS011;36542;51.700;8.846;2023-04-06T10:05:46;11.07;;;8.83;;
50585;SDS011;36542;51.700;8.846;2023-04-06T10:08:19;12.27;;;9.90;;
50585;SDS011;36542;51.700;8.846;2023-04-06T10:10:53;15.57;;;10.60;;
50585;SDS011;36542;51.700;8.846;2023-04-06T10:13:19;13.37;;;9.43;;
50585;SDS011;36542;51.700;8.846;2023-04-06T10:15:45;13.10;;;9.90;;
50585;SDS011;36542;51.700;8.846;2023-04-06T10:18:12;12.97;;;9.83;;
50585;SDS011;36542;51.700;8.846;2023-04-06T10:20:41;12.30;;;9.50;;
50585;SDS011;36542;51.700;8.846;2023-04-06T10:26:15;14.83;;;10.23;;
50585;SDS011;36542;51.700;8.846;2023-04-06T10:28:43;14.87;;;9.80;;
50585;SDS011;36542;51.700;8.846;2023-04-06T10:31:10;14.30;;;10.50;;
50585;SDS011;36542;51.700;8.846;2023-04-06T10:33:36;14.53;;;10.13;;
50585;SDS011;36542;51.700;8.846;2023-04-06T10:38:37;14.53;;;10.90;;
50585;SDS011;36542;51.700;8.846;2023-04-06T10:41:03;14.60;;;10.60;;
50585;SDS011;36542;51.700;8.846;2023-04-06T10:43:32;13.57;;;9.97;;
50585;SDS011;36542;51.700;8.846;2023-04-06T10:46:00;17.93;;;11.33;;
50585;SDS011;36542;51.700;8.846;2023-04-06T10:48:40;16.30;;;11.47;;
50585;SDS011;36542;51.700;8.846;2023-04-06T10:51:12;15.60;;;11.50;;
50585;SDS011;36542;51.700;8.846;2023-04-06T10:53:43;14.67;;;11.33;;
50585;SDS011;36542;51.700;8.846;2023-04-06T10:56:10;14.43;;;11.07;;
50585;SDS011;36542;51.700;8.846;2023-04-06T10:58:37;13.13;;;10.27;;
50585;SDS011;36542;51.700;8.846;2023-04-06T11:01:03;16.10;;;11.33;;
50585;SDS011;36542;51.700;8.846;2023-04-06T11:03:29;19.00;;;12.00;;
50585;SDS011;36542;51.700;8.846;2023-04-06T11:05:55;16.50;;;12.40;;
50585;SDS011;36542;51.700;8.846;2023-04-06T11:08:28;13.70;;;11.30;;
50585;SDS011;36542;51.700;8.846;2023-04-06T11:11:07;16.80;;;12.10;;
50585;SDS011;36542;51.700;8.846;2023-04-06T11:13:48;15.60;;;12.00;;
50585;SDS011;36542;51.700;8.846;2023-04-06T11:16:27;13.77;;;11.43;;
50585;SDS011;36542;51.700;8.846;2023-04-06T11:19:03;15.70;;;11.47;;
50585;SDS011;36542;51.700;8.846;2023-04-06T11:21:45;17.33;;;12.07;;
50585;SDS011;36542;51.700;8.846;2023-04-06T11:24:13;16.37;;;12.13;;
50585;SDS011;36542;51.700;8.846;2023-04-06T11:26:41;17.10;;;12.43;;
50585;SDS011;36542;51.700;8.846;2023-04-06T11:29:11;18.23;;;12.73;;
50585;SDS011;36542;51.700;8.846;2023-04-06T11:31:39;17.63;;;12.70;;
50585;SDS011;36542;51.700;8.846;2023-04-06T11:34:09;16.37;;;12.37;;
50585;SDS011;36542;51.700;8.846;2023-04-06T11:36:35;19.23;;;12.93;;
50585;SDS011;36542;51.700;8.846;2023-04-06T11:39:04;16.00;;;12.27;;
50585;SDS011;36542;51.700;8.846;2023-04-06T11:41:32;17.87;;;12.23;;
50585;SDS011;36542;51.700;8.846;2023-04-06T11:43:57;18.13;;;13.13;;
50585;SDS011;36542;51.700;8.846;2023-04-06T11:46:27;16.87;;;12.40;;
50585;SDS011;36542;51.700;8.846;2023-04-06T11:48:53;18.37;;;12.93;;
50585;SDS011;36542;51.700;8.846;2023-04-06T11:51:23;17.23;;;11.53;;
50585;SDS011;36542;51.700;8.846;2023-04-06T11:53:49;21.40;;;13.30;;
50585;SDS011;36542;51.700;8.846;2023-04-06T11:56:28;19.13;;;13.63;;
50585;SDS011;36542;51.700;8.846;2023-04-06T11:58:55;18.60;;;13.67;;
50585;SDS011;36542;51.700;8.846;2023-04-06T12:01:21;21.87;;;13.97;;
50585;SDS011;36542;51.700;8.846;2023-04-06T12:03:47;18.93;;;13.43;;
50585;SDS011;36542;51.700;8.846;2023-04-06T12:06:14;19.23;;;13.80;;
50585;SDS011;36542;51.700;8.846;2023-04-06T12:08:40;19.17;;;13.60;;
50585;SDS011;36542;51.700;8.846;2023-04-06T12:11:05;21.40;;;13.43;;
50585;SDS011;36542;51.700;8.846;2023-04-06T12:13:31;19.07;;;13.73;;
50585;SDS011;36542;51.700;8.846;2023-04-06T12:15:57;16.90;;;12.70;;
50585;SDS011;36542;51.700;8.846;2023-04-06T12:18:22;18.07;;;12.43;;
50585;SDS011;36542;51.700;8.846;2023-04-06T12:20:47;22.43;;;12.53;;
50585;SDS011;36542;51.700;8.846;2023-04-06T12:23:13;18.27;;;12.53;;
50585;SDS011;36542;51.700;8.846;2023-04-06T12:25:39;16.33;;;12.93;;
50585;SDS011;36542;51.700;8.846;2023-04-06T12:28:06;20.07;;;12.17;;
50585;SDS011;36542;51.700;8.846;2023-04-06T12:30:31;15.57;;;11.90;;
50585;SDS011;36542;51.700;8.846;2023-04-06T12:32:57;17.47;;;12.30;;
50585;SDS011;36542;51.700;8.846;2023-04-06T12:35:23;17.30;;;12.87;;
50585;SDS011;36542;51.700;8.846;2023-04-06T12:37:48;18.43;;;13.20;;
50585;SDS011;36542;51.700;8.846;2023-04-06T12:40:14;18.80;;;13.83;;
50585;SDS011;36542;51.700;8.846;2023-04-06T12:42:40;16.23;;;13.07;;
50585;SDS011;36542;51.700;8.846;2023-04-06T12:45:06;17.67;;;13.20;;
50585;SDS011;36542;51.700;8.846;2023-04-06T12:47:33;21.23;;;13.97;;
50585;SDS011;36542;51.700;8.846;2023-04-06T12:49:58;20.17;;;13.03;;
50585;SDS011;36542;51.700;8.846;2023-04-06T12:52:24;19.67;;;13.37;;
50585;SDS011;36542;51.700;8.846;2023-04-06T12:54:50;22.30;;;12.70;;
50585;SDS011;36542;51.700;8.846;2023-04-06T12:57:16;17.57;;;12.93;;
50585;SDS011;36542;51.700;8.846;2023-04-06T12:59:44;17.83;;;12.60;;
50585;SDS011;36542;51.700;8.846;2023-04-06T13:02:11;17.43;;;12.37;;
50585;SDS011;36542;51.700;8.846;2023-04-06T13:04:36;18.90;;;11.93;;
50585;SDS011;36542;51.700;8.846;2023-04-06T13:07:02;18.77;;;12.00;;
50585;SDS011;36542;51.700;8.846;2023-04-06T13:09:27;21.97;;;12.93;;
50585;SDS011;36542;51.700;8.846;2023-04-06T13:11:53;17.73;;;12.67;;
50585;SDS011;36542;51.700;8.846;2023-04-06T13:14:18;19.37;;;12.53;;
50585;SDS011;36542;51.700;8.846;2023-04-06T13:16:44;17.70;;;12.47;;
50585;SDS011;36542;51.700;8.846;2023-04-06T13:19:09;19.77;;;12.67;;
50585;SDS011;36542;51.700;8.846;2023-04-06T13:21:35;16.57;;;12.90;;
50585;SDS011;36542;51.700;8.846;2023-04-06T13:24:01;17.60;;;12.33;;
50585;SDS011;36542;51.700;8.846;2023-04-06T13:26:26;17.53;;;12.97;;
50585;SDS011;36542;51.700;8.846;2023-04-06T13:28:53;16.37;;;12.47;;
50585;SDS011;36542;51.700;8.846;2023-04-06T13:31:21;18.80;;;12.90;;
50585;SDS011;36542;51.700;8.846;2023-04-06T13:33:46;15.37;;;12.33;;
50585;SDS011;36542;51.700;8.846;2023-04-06T13:36:12;17.83;;;12.17;;
50585;SDS011;36542;51.700;8.846;2023-04-06T13:38:37;17.87;;;11.70;;
50585;SDS011;36542;51.700;8.846;2023-04-06T13:41:03;22.97;;;13.53;;
50585;SDS011;36542;51.700;8.846;2023-04-06T13:43:30;15.70;;;11.23;;
50585;SDS011;36542;51.700;8.846;2023-04-06T13:45:57;14.07;;;10.97;;
50585;SDS011;36542;51.700;8.846;2023-04-06T13:48:24;15.30;;;10.43;;
50585;SDS011;36542;51.700;8.846;2023-04-06T13:50:51;15.63;;;11.20;;
50585;SDS011;36542;51.700;8.846;2023-04-06T13:53:17;15.03;;;10.77;;
50585;SDS011;36542;51.700;8.846;2023-04-06T13:55:42;15.53;;;12.03;;
50585;SDS011;36542;51.700;8.846;2023-04-06T13:58:08;15.47;;;12.10;;
50585;SDS011;36542;51.700;8.846;2023-04-06T14:00:34;18.40;;;12.97;;
50585;SDS011;36542;51.700;8.846;2023-04-06T14:03:00;18.53;;;13.73;;
50585;SDS011;36542;51.700;8.846;2023-04-06T14:05:26;15.63;;;12.20;;
50585;SDS011;36542;51.700;8.846;2023-04-06T14:07:55;16.73;;;12.20;;
50585;SDS011;36542;51.700;8.846;2023-04-06T14:10:20;16.30;;;12.93;;
50585;SDS011;36542;51.700;8.846;2023-04-06T14:12:48;14.87;;;12.00;;
50585;SDS011;36542;51.700;8.846;2023-04-06T14:15:14;16.27;;;12.37;;
50585;SDS011;36542;51.700;8.846;2023-04-06T14:17:40;16.87;;;12.67;;
50585;SDS011;36542;51.700;8.846;2023-04-06T14:20:05;16.43;;;11.53;;
50585;SDS011;36542;51.700;8.846;2023-04-06T14:22:31;18.53;;;12.23;;
50585;SDS011;36542;51.700;8.846;2023-04-06T14:24:57;17.87;;;12.00;;
50585;SDS011;36542;51.700;8.846;2023-04-06T14:27:23;19.13;;;11.63;;
50585;SDS011;36542;51.700;8.846;2023-04-06T14:29:49;16.73;;;12.03;;
50585;SDS011;36542;51.700;8.846;2023-04-06T14:32:15;15.23;;;11.87;;
50585;SDS011;36542;51.700;8.846;2023-04-06T14:34:41;19.60;;;12.27;;